sensor_id;sensor_type;location;lat;lon;timestamp;P1;durP1;ratioP1;P2;durP2;ratioP2
73575;SDS011;61859;49.204;8.140;2023-05-16T00:00:58;11.23;;;8.00;;
73575;SDS011;61859;49.204;8.140;2023-05-16T00:03:32;12.03;;;8.70;;
73575;SDS011;61859;49.204;8.140;2023-05-16T00:06:03;16.00;;;10.70;;
73575;SDS011;61859;49.204;8.140;2023-05-16T00:08:33;13.53;;;10.37;;
73575;SDS011;61859;49.204;8.140;2023-05-16T00:11:01;17.87;;;11.77;;
73575;SDS011;61859;49.204;8.140;2023-05-16T00:13:28;17.77;;;11.80;;
73575;SDS011;61859;49.204;8.140;2023-05-16T00:15:57;17.43;;;12.27;;
73575;SDS011;61859;49.204;8.140;2023-05-16T00:18:28;19.13;;;12.73;;
73575;SDS011;61859;49.204;8.140;2023-05-16T00:20:56;18.20;;;13.10;;
73575;SDS011;61859;49.204;8.140;2023-05-16T00:23:27;21.23;;;13.67;;
73575;SDS011;61859;49.204;8.140;2023-05-16T00:25:58;17.93;;;13.27;;
73575;SDS011;61859;49.204;8.140;2023-05-16T00:28:24;19.70;;;13.33;;
73575;SDS011;61859;49.204;8.140;2023-05-16T00:30:52;19.90;;;14.53;;
73575;SDS011;61859;49.204;8.140;2023-05-16T00:33:18;20.80;;;13.97;;
73575;SDS011;61859;49.204;8.140;2023-05-16T00:35:53;20.43;;;14.57;;
73575;SDS011;61859;49.204;8.140;2023-05-16T00:38:20;20.10;;;13.40;;
73575;SDS011;61859;49.204;8.140;2023-05-16T00:40:47;19.83;;;13.73;;
73575;SDS011;61859;49.204;8.140;2023-05-16T00:43:14;22.33;;;14.27;;
73575;SDS011;61859;49.204;8.140;2023-05-16T00:45:40;20.47;;;14.10;;
73575;SDS011;61859;49.204;8.140;2023-05-16T00:48:08;20.37;;;14.67;;
73575;SDS011;61859;49.204;8.140;2023-05-16T00:50:35;19.47;;;12.80;;
73575;SDS011;61859;49.204;8.140;2023-05-16T00:53:02;22.97;;;14.10;;
73575;SDS011;61859;49.204;8.140;2023-05-16T00:55:28;19.70;;;13.67;;
73575;SDS011;61859;49.204;8.140;2023-05-16T00:58:04;18.00;;;13.67;;
73575;SDS011;61859;49.204;8.140;2023-05-16T01:00:33;19.77;;;14.00;;
73575;SDS011;61859;49.204;8.140;2023-05-16T01:03:11;19.53;;;13.27;;
73575;SDS011;61859;49.204;8.140;2023-05-16T01:05:38;17.17;;;12.90;;
73575;SDS011;61859;49.204;8.140;2023-05-16T01:08:05;17.50;;;13.30;;
73575;SDS011;61859;49.204;8.140;2023-05-16T01:10:48;20.17;;;13.73;;
73575;SDS011;61859;49.204;8.140;2023-05-16T01:16:48;19.10;;;13.67;;
73575;SDS011;61859;49.204;8.140;2023-05-16T01:23:03;19.43;;;12.87;;
73575;SDS011;61859;49.204;8.140;2023-05-16T01:28:44;20.77;;;13.73;;
73575;SDS011;61859;49.204;8.140;2023-05-16T01:31:11;18.07;;;12.80;;
73575;SDS011;61859;49.204;8.140;2023-05-16T01:33:37;18.50;;;13.30;;
73575;SDS011;61859;49.204;8.140;2023-05-16T01:39:23;18.83;;;12.57;;
73575;SDS011;61859;49.204;8.140;2023-05-16T01:42:16;20.57;;;13.40;;
73575;SDS011;61859;49.204;8.140;2023-05-16T01:44:47;20.47;;;12.27;;
73575;SDS011;61859;49.204;8.140;2023-05-16T01:48:09;19.73;;;12.43;;
73575;SDS011;61859;49.204;8.140;2023-05-16T01:50:44;20.07;;;13.37;;
73575;SDS011;61859;49.204;8.140;2023-05-16T01:53:18;17.43;;;12.60;;
73575;SDS011;61859;49.204;8.140;2023-05-16T01:56:08;19.73;;;13.20;;
73575;SDS011;61859;49.204;8.140;2023-05-16T01:58:47;17.00;;;12.43;;
73575;SDS011;61859;49.204;8.140;2023-05-16T02:01:18;17.20;;;12.43;;
73575;SDS011;61859;49.204;8.140;2023-05-16T02:03:48;20.20;;;12.83;;
73575;SDS011;61859;49.204;8.140;2023-05-16T02:06:15;18.93;;;12.43;;
73575;SDS011;61859;49.204;8.140;2023-05-16T02:08:41;18.00;;;12.33;;
73575;SDS011;61859;49.204;8.140;2023-05-16T02:11:08;18.27;;;12.60;;
73575;SDS011;61859;49.204;8.140;2023-05-16T02:13:40;19.30;;;13.23;;
73575;SDS011;61859;49.204;8.140;2023-05-16T02:18:54;20.77;;;13.40;;
73575;SDS011;61859;49.204;8.140;2023-05-16T02:21:26;18.73;;;11.90;;
73575;SDS011;61859;49.204;8.140;2023-05-16T02:23:52;17.03;;;12.03;;
73575;SDS011;61859;49.204;8.140;2023-05-16T02:26:18;17.00;;;10.87;;
73575;SDS011;61859;49.204;8.140;2023-05-16T02:28:44;18.67;;;12.40;;
73575;SDS011;61859;49.204;8.140;2023-05-16T02:31:30;19.00;;;12.57;;
73575;SDS011;61859;49.204;8.140;2023-05-16T02:33:57;19.23;;;12.50;;
73575;SDS011;61859;49.204;8.140;2023-05-16T02:36:23;17.57;;;12.27;;
73575;SDS011;61859;49.204;8.140;2023-05-16T02:38:52;17.00;;;11.43;;
73575;SDS011;61859;49.204;8.140;2023-05-16T02:41:21;18.53;;;12.33;;
73575;SDS011;61859;49.204;8.140;2023-05-16T02:43:48;17.27;;;12.13;;
73575;SDS011;61859;49.204;8.140;2023-05-16T02:49:00;18.90;;;12.33;;
73575;SDS011;61859;49.204;8.140;2023-05-16T02:51:30;17.40;;;11.63;;
73575;SDS011;61859;49.204;8.140;2023-05-16T02:54:08;15.77;;;11.57;;
73575;SDS011;61859;49.204;8.140;2023-05-16T02:56:36;18.07;;;11.60;;
73575;SDS011;61859;49.204;8.140;2023-05-16T02:59:02;18.20;;;12.50;;
73575;SDS011;61859;49.204;8.140;2023-05-16T03:01:33;19.63;;;12.23;;
73575;SDS011;61859;49.204;8.140;2023-05-16T03:04:07;19.63;;;11.90;;
73575;SDS011;61859;49.204;8.140;2023-05-16T03:06:39;16.73;;;11.77;;
73575;SDS011;61859;49.204;8.140;2023-05-16T03:09:12;15.17;;;11.40;;
73575;SDS011;61859;49.204;8.140;2023-05-16T03:11:41;16.87;;;11.80;;
73575;SDS011;61859;49.204;8.140;2023-05-16T03:14:12;18.10;;;11.37;;
73575;SDS011;61859;49.204;8.140;2023-05-16T03:16:39;14.73;;;11.23;;
73575;SDS011;61859;49.204;8.140;2023-05-16T03:19:08;16.07;;;11.57;;
73575;SDS011;61859;49.204;8.140;2023-05-16T03:21:36;15.50;;;11.13;;
73575;SDS011;61859;49.204;8.140;2023-05-16T03:24:05;16.73;;;11.10;;
73575;SDS011;61859;49.204;8.140;2023-05-16T03:26:33;15.40;;;11.63;;
73575;SDS011;61859;49.204;8.140;2023-05-16T03:29:04;17.67;;;12.67;;
73575;SDS011;61859;49.204;8.140;2023-05-16T03:31:34;17.80;;;11.90;;
73575;SDS011;61859;49.204;8.140;2023-05-16T03:34:02;17.80;;;11.00;;
73575;SDS011;61859;49.204;8.140;2023-05-16T03:36:29;18.43;;;11.60;;
73575;SDS011;61859;49.204;8.140;2023-05-16T03:38:57;17.03;;;11.60;;
73575;SDS011;61859;49.204;8.140;2023-05-16T03:41:32;18.20;;;12.07;;
73575;SDS011;61859;49.204;8.140;2023-05-16T03:44:09;19.07;;;11.47;;
73575;SDS011;61859;49.204;8.140;2023-05-16T03:46:37;18.97;;;11.40;;
73575;SDS011;61859;49.204;8.140;2023-05-16T03:49:09;14.63;;;10.17;;
73575;SDS011;61859;49.204;8.140;2023-05-16T03:51:36;17.87;;;11.57;;
73575;SDS011;61859;49.204;8.140;2023-05-16T03:54:17;14.73;;;10.53;;
73575;SDS011;61859;49.204;8.140;2023-05-16T03:56:51;15.13;;;10.87;;
73575;SDS011;61859;49.204;8.140;2023-05-16T03:59:23;14.70;;;11.00;;
73575;SDS011;61859;49.204;8.140;2023-05-16T04:01:50;15.33;;;10.50;;
73575;SDS011;61859;49.204;8.140;2023-05-16T04:04:19;14.57;;;10.57;;
73575;SDS011;61859;49.204;8.140;2023-05-16T04:06:45;16.93;;;10.63;;
73575;SDS011;61859;49.204;8.140;2023-05-16T04:09:12;15.03;;;11.37;;
73575;SDS011;61859;49.204;8.140;2023-05-16T04:11:42;17.47;;;11.07;;
73575;SDS011;61859;49.204;8.140;2023-05-16T04:14:13;14.57;;;10.67;;
73575;SDS011;61859;49.204;8.140;2023-05-16T04:16:43;14.20;;;10.30;;
73575;SDS011;61859;49.204;8.140;2023-05-16T04:19:19;14.87;;;10.63;;
73575;SDS011;61859;49.204;8.140;2023-05-16T04:21:49;17.37;;;10.73;;
73575;SDS011;61859;49.204;8.140;2023-05-16T04:24:16;14.67;;;10.57;;
73575;SDS011;61859;49.204;8.140;2023-05-16T04:26:42;14.07;;;9.60;;
73575;SDS011;61859;49.204;8.140;2023-05-16T04:29:08;15.07;;;8.90;;
73575;SDS011;61859;49.204;8.140;2023-05-16T04:31:41;16.30;;;10.57;;
73575;SDS011;61859;49.204;8.140;2023-05-16T04:34:07;13.87;;;9.80;;
73575;SDS011;61859;49.204;8.140;2023-05-16T04:36:40;18.33;;;9.87;;
73575;SDS011;61859;49.204;8.140;2023-05-16T04:39:10;15.17;;;10.00;;
73575;SDS011;61859;49.204;8.140;2023-05-16T04:41:42;14.83;;;9.90;;
73575;SDS011;61859;49.204;8.140;2023-05-16T04:47:38;13.03;;;9.20;;
73575;SDS011;61859;49.204;8.140;2023-05-16T04:50:06;13.50;;;9.53;;
73575;SDS011;61859;49.204;8.140;2023-05-16T04:52:34;13.60;;;8.97;;
73575;SDS011;61859;49.204;8.140;2023-05-16T04:55:04;15.03;;;9.50;;
73575;SDS011;61859;49.204;8.140;2023-05-16T04:57:36;12.90;;;8.93;;
73575;SDS011;61859;49.204;8.140;2023-05-16T05:00:07;14.40;;;9.93;;
73575;SDS011;61859;49.204;8.140;2023-05-16T05:02:38;10.33;;;8.57;;
73575;SDS011;61859;49.204;8.140;2023-05-16T05:05:04;15.90;;;9.40;;
73575;SDS011;61859;49.204;8.140;2023-05-16T05:07:33;13.03;;;9.00;;
73575;SDS011;61859;49.204;8.140;2023-05-16T05:09:59;14.77;;;9.77;;
73575;SDS011;61859;49.204;8.140;2023-05-16T05:12:27;12.93;;;9.00;;
73575;SDS011;61859;49.204;8.140;2023-05-16T05:14:53;11.80;;;8.80;;
73575;SDS011;61859;49.204;8.140;2023-05-16T05:17:26;13.43;;;9.30;;
73575;SDS011;61859;49.204;8.140;2023-05-16T05:19:55;13.90;;;9.30;;
73575;SDS011;61859;49.204;8.140;2023-05-16T05:22:23;11.37;;;8.67;;
73575;SDS011;61859;49.204;8.140;2023-05-16T05:24:55;10.90;;;8.20;;
73575;SDS011;61859;49.204;8.140;2023-05-16T05:27:24;12.87;;;8.63;;
73575;SDS011;61859;49.204;8.140;2023-05-16T05:29:53;11.33;;;8.37;;
73575;SDS011;61859;49.204;8.140;2023-05-16T05:32:22;14.03;;;8.70;;
73575;SDS011;61859;49.204;8.140;2023-05-16T05:34:56;11.50;;;8.13;;
73575;SDS011;61859;49.204;8.140;2023-05-16T05:37:25;9.27;;;6.93;;
73575;SDS011;61859;49.204;8.140;2023-05-16T05:39:56;7.90;;;6.07;;
73575;SDS011;61859;49.204;8.140;2023-05-16T05:42:28;10.70;;;6.33;;
73575;SDS011;61859;49.204;8.140;2023-05-16T05:44:54;8.60;;;6.33;;
73575;SDS011;61859;49.204;8.140;2023-05-16T05:47:26;9.00;;;6.20;;
73575;SDS011;61859;49.204;8.140;2023-05-16T05:49:53;6.67;;;5.37;;
73575;SDS011;61859;49.204;8.140;2023-05-16T05:52:21;10.70;;;5.83;;
73575;SDS011;61859;49.204;8.140;2023-05-16T05:54:50;7.97;;;5.43;;
73575;SDS011;61859;49.204;8.140;2023-05-16T05:57:16;7.03;;;5.53;;
73575;SDS011;61859;49.204;8.140;2023-05-16T05:59:48;6.00;;;5.20;;
73575;SDS011;61859;49.204;8.140;2023-05-16T06:02:17;6.93;;;4.93;;
73575;SDS011;61859;49.204;8.140;2023-05-16T06:04:44;7.63;;;4.63;;
73575;SDS011;61859;49.204;8.140;2023-05-16T06:07:15;7.43;;;4.93;;
73575;SDS011;61859;49.204;8.140;2023-05-16T06:09:45;5.40;;;4.20;;
73575;SDS011;61859;49.204;8.140;2023-05-16T06:12:22;6.13;;;4.23;;
73575;SDS011;61859;49.204;8.140;2023-05-16T06:14:51;5.30;;;4.03;;
73575;SDS011;61859;49.204;8.140;2023-05-16T06:17:22;5.13;;;3.83;;
73575;SDS011;61859;49.204;8.140;2023-05-16T06:19:52;5.63;;;3.87;;
73575;SDS011;61859;49.204;8.140;2023-05-16T06:22:30;4.13;;;2.87;;
73575;SDS011;61859;49.204;8.140;2023-05-16T06:25:01;5.93;;;3.40;;
73575;SDS011;61859;49.204;8.140;2023-05-16T06:27:33;4.07;;;3.07;;
73575;SDS011;61859;49.204;8.140;2023-05-16T06:30:01;3.30;;;2.80;;
73575;SDS011;61859;49.204;8.140;2023-05-16T06:32:32;4.03;;;2.43;;
73575;SDS011;61859;49.204;8.140;2023-05-16T06:34:59;3.80;;;2.00;;
73575;SDS011;61859;49.204;8.140;2023-05-16T06:37:49;2.60;;;2.10;;
73575;SDS011;61859;49.204;8.140;2023-05-16T06:40:22;2.13;;;1.93;;
73575;SDS011;61859;49.204;8.140;2023-05-16T06:43:03;6.73;;;2.23;;
73575;SDS011;61859;49.204;8.140;2023-05-16T06:45:30;5.43;;;1.90;;
73575;SDS011;61859;49.204;8.140;2023-05-16T06:47:55;3.57;;;2.30;;
73575;SDS011;61859;49.204;8.140;2023-05-16T06:50:21;2.80;;;1.77;;
73575;SDS011;61859;49.204;8.140;2023-05-16T06:52:47;3.20;;;1.70;;
73575;SDS011;61859;49.204;8.140;2023-05-16T06:55:13;1.60;;;1.50;;
73575;SDS011;61859;49.204;8.140;2023-05-16T06:57:39;1.57;;;1.20;;
73575;SDS011;61859;49.204;8.140;2023-05-16T07:00:05;2.70;;;1.40;;
73575;SDS011;61859;49.204;8.140;2023-05-16T07:02:31;2.77;;;1.10;;
73575;SDS011;61859;49.204;8.140;2023-05-16T07:04:56;0.77;;;0.73;;
73575;SDS011;61859;49.204;8.140;2023-05-16T07:07:22;1.17;;;1.03;;
73575;SDS011;61859;49.204;8.140;2023-05-16T07:09:47;0.80;;;0.80;;
73575;SDS011;61859;49.204;8.140;2023-05-16T07:12:13;1.00;;;0.90;;
73575;SDS011;61859;49.204;8.140;2023-05-16T07:14:39;0.97;;;0.70;;
73575;SDS011;61859;49.204;8.140;2023-05-16T07:17:05;0.40;;;0.40;;
73575;SDS011;61859;49.204;8.140;2023-05-16T07:19:31;2.57;;;0.70;;
73575;SDS011;61859;49.204;8.140;2023-05-16T07:21:57;1.57;;;0.50;;
73575;SDS011;61859;49.204;8.140;2023-05-16T07:24:22;0.40;;;0.40;;
73575;SDS011;61859;49.204;8.140;2023-05-16T07:26:48;0.50;;;0.50;;
73575;SDS011;61859;49.204;8.140;2023-05-16T07:29:14;0.70;;;0.50;;
73575;SDS011;61859;49.204;8.140;2023-05-16T07:31:39;0.87;;;0.70;;
73575;SDS011;61859;49.204;8.140;2023-05-16T07:34:05;0.87;;;0.40;;
73575;SDS011;61859;49.204;8.140;2023-05-16T07:36:32;2.23;;;0.40;;
73575;SDS011;61859;49.204;8.140;2023-05-16T07:38:58;0.30;;;0.30;;
73575;SDS011;61859;49.204;8.140;2023-05-16T07:41:24;0.20;;;0.20;;
73575;SDS011;61859;49.204;8.140;2023-05-16T07:43:50;0.50;;;0.50;;
73575;SDS011;61859;49.204;8.140;2023-05-16T07:46:16;0.83;;;0.40;;
73575;SDS011;61859;49.204;8.140;2023-05-16T07:48:41;1.20;;;0.30;;
73575;SDS011;61859;49.204;8.140;2023-05-16T07:51:07;1.50;;;0.50;;
73575;SDS011;61859;49.204;8.140;2023-05-16T07:53:33;1.23;;;0.50;;
73575;SDS011;61859;49.204;8.140;2023-05-16T07:55:59;0.40;;;0.30;;
73575;SDS011;61859;49.204;8.140;2023-05-16T07:58:24;0.40;;;0.37;;
73575;SDS011;61859;49.204;8.140;2023-05-16T08:00:50;0.47;;;0.37;;
73575;SDS011;61859;49.204;8.140;2023-05-16T08:03:16;3.47;;;0.40;;
73575;SDS011;61859;49.204;8.140;2023-05-16T08:05:41;0.40;;;0.40;;
73575;SDS011;61859;49.204;8.140;2023-05-16T08:08:07;0.73;;;0.47;;
73575;SDS011;61859;49.204;8.140;2023-05-16T08:10:32;0.57;;;0.40;;
73575;SDS011;61859;49.204;8.140;2023-05-16T08:12:58;0.50;;;0.40;;
73575;SDS011;61859;49.204;8.140;2023-05-16T08:15:25;0.37;;;0.37;;
73575;SDS011;61859;49.204;8.140;2023-05-16T08:17:53;0.53;;;0.50;;
73575;SDS011;61859;49.204;8.140;2023-05-16T08:20:21;2.67;;;0.53;;
73575;SDS011;61859;49.204;8.140;2023-05-16T08:22:47;0.60;;;0.60;;
73575;SDS011;61859;49.204;8.140;2023-05-16T08:25:12;0.30;;;0.30;;
73575;SDS011;61859;49.204;8.140;2023-05-16T08:27:38;0.37;;;0.30;;
73575;SDS011;61859;49.204;8.140;2023-05-16T08:30:04;0.37;;;0.37;;
73575;SDS011;61859;49.204;8.140;2023-05-16T08:32:30;0.47;;;0.47;;
73575;SDS011;61859;49.204;8.140;2023-05-16T08:34:56;0.40;;;0.40;;
73575;SDS011;61859;49.204;8.140;2023-05-16T08:37:21;0.27;;;0.27;;
73575;SDS011;61859;49.204;8.140;2023-05-16T08:39:47;1.17;;;0.70;;
73575;SDS011;61859;49.204;8.140;2023-05-16T08:42:12;0.77;;;0.40;;
73575;SDS011;61859;49.204;8.140;2023-05-16T08:44:38;0.30;;;0.30;;
73575;SDS011;61859;49.204;8.140;2023-05-16T08:47:17;0.43;;;0.30;;
73575;SDS011;61859;49.204;8.140;2023-05-16T08:49:46;0.20;;;0.20;;
73575;SDS011;61859;49.204;8.140;2023-05-16T08:52:13;0.97;;;0.30;;
73575;SDS011;61859;49.204;8.140;2023-05-16T08:54:43;0.93;;;0.33;;
73575;SDS011;61859;49.204;8.140;2023-05-16T08:57:10;0.23;;;0.23;;
73575;SDS011;61859;49.204;8.140;2023-05-16T08:59:37;0.27;;;0.20;;
73575;SDS011;61859;49.204;8.140;2023-05-16T09:02:04;0.20;;;0.20;;
73575;SDS011;61859;49.204;8.140;2023-05-16T09:04:30;0.70;;;0.20;;
73575;SDS011;61859;49.204;8.140;2023-05-16T09:06:56;0.10;;;0.10;;
73575;SDS011;61859;49.204;8.140;2023-05-16T09:09:22;2.50;;;0.33;;
73575;SDS011;61859;49.204;8.140;2023-05-16T09:11:48;0.83;;;0.30;;
73575;SDS011;61859;49.204;8.140;2023-05-16T09:14:14;0.70;;;0.17;;
73575;SDS011;61859;49.204;8.140;2023-05-16T09:16:40;0.40;;;0.20;;
73575;SDS011;61859;49.204;8.140;2023-05-16T09:19:05;0.47;;;0.30;;
73575;SDS011;61859;49.204;8.140;2023-05-16T09:21:32;0.10;;;0.10;;
73575;SDS011;61859;49.204;8.140;2023-05-16T09:24:05;0.10;;;0.10;;
73575;SDS011;61859;49.204;8.140;2023-05-16T09:26:32;0.40;;;0.20;;
73575;SDS011;61859;49.204;8.140;2023-05-16T09:28:59;0.47;;;0.10;;
73575;SDS011;61859;49.204;8.140;2023-05-16T09:31:26;0.60;;;0.40;;
73575;SDS011;61859;49.204;8.140;2023-05-16T09:34:01;0.40;;;0.30;;
73575;SDS011;61859;49.204;8.140;2023-05-16T09:36:30;0.10;;;0.10;;
73575;SDS011;61859;49.204;8.140;2023-05-16T09:38:56;0.13;;;0.10;;
73575;SDS011;61859;49.204;8.140;2023-05-16T09:41:21;0.13;;;0.13;;
73575;SDS011;61859;49.204;8.140;2023-05-16T09:43:47;0.10;;;0.10;;
73575;SDS011;61859;49.204;8.140;2023-05-16T09:46:13;0.07;;;0.07;;
73575;SDS011;61859;49.204;8.140;2023-05-16T09:48:46;0.10;;;0.10;;
73575;SDS011;61859;49.204;8.140;2023-05-16T09:51:12;0.20;;;0.20;;
73575;SDS011;61859;49.204;8.140;2023-05-16T09:53:38;0.40;;;0.37;;
73575;SDS011;61859;49.204;8.140;2023-05-16T09:56:06;0.93;;;0.20;;
73575;SDS011;61859;49.204;8.140;2023-05-16T09:58:36;0.27;;;0.20;;
73575;SDS011;61859;49.204;8.140;2023-05-16T10:01:05;0.70;;;0.30;;
73575;SDS011;61859;49.204;8.140;2023-05-16T10:03:33;0.37;;;0.23;;
73575;SDS011;61859;49.204;8.140;2023-05-16T10:06:00;0.10;;;0.10;;
73575;SDS011;61859;49.204;8.140;2023-05-16T10:08:26;1.70;;;0.20;;
73575;SDS011;61859;49.204;8.140;2023-05-16T10:10:55;0.87;;;0.60;;
73575;SDS011;61859;49.204;8.140;2023-05-16T10:13:22;0.20;;;0.20;;
73575;SDS011;61859;49.204;8.140;2023-05-16T10:15:54;0.30;;;0.23;;
73575;SDS011;61859;49.204;8.140;2023-05-16T10:18:21;0.40;;;0.40;;
73575;SDS011;61859;49.204;8.140;2023-05-16T10:20:51;1.13;;;0.10;;
73575;SDS011;61859;49.204;8.140;2023-05-16T10:23:19;0.63;;;0.37;;
73575;SDS011;61859;49.204;8.140;2023-05-16T10:25:47;0.27;;;0.20;;
73575;SDS011;61859;49.204;8.140;2023-05-16T10:28:14;0.20;;;0.20;;
73575;SDS011;61859;49.204;8.140;2023-05-16T10:30:44;1.07;;;0.50;;
73575;SDS011;61859;49.204;8.140;2023-05-16T10:33:11;0.50;;;0.37;;
73575;SDS011;61859;49.204;8.140;2023-05-16T10:35:38;2.17;;;0.50;;
73575;SDS011;61859;49.204;8.140;2023-05-16T10:38:05;0.10;;;0.10;;
73575;SDS011;61859;49.204;8.140;2023-05-16T10:40:33;0.40;;;0.40;;
73575;SDS011;61859;49.204;8.140;2023-05-16T10:43:01;0.20;;;0.20;;
73575;SDS011;61859;49.204;8.140;2023-05-16T10:45:28;0.10;;;0.10;;
73575;SDS011;61859;49.204;8.140;2023-05-16T10:47:55;0.40;;;0.30;;
73575;SDS011;61859;49.204;8.140;2023-05-16T10:50:39;0.73;;;0.13;;
73575;SDS011;61859;49.204;8.140;2023-05-16T10:55:47;0.07;;;0.07;;
73575;SDS011;61859;49.204;8.140;2023-05-16T11:01:27;0.27;;;0.27;;
73575;SDS011;61859;49.204;8.140;2023-05-16T11:19:36;0.20;;;0.20;;
73575;SDS011;61859;49.204;8.140;2023-05-16T11:25:06;0.73;;;0.53;;
73575;SDS011;61859;49.204;8.140;2023-05-16T11:32:32;0.87;;;0.40;;
73575;SDS011;61859;49.204;8.140;2023-05-16T11:34:59;0.73;;;0.43;;
73575;SDS011;61859;49.204;8.140;2023-05-16T11:37:26;4.93;;;1.00;;
73575;SDS011;61859;49.204;8.140;2023-05-16T11:39:52;0.50;;;0.50;;
73575;SDS011;61859;49.204;8.140;2023-05-16T11:42:18;1.07;;;0.60;;
73575;SDS011;61859;49.204;8.140;2023-05-16T11:44:44;0.87;;;0.60;;
73575;SDS011;61859;49.204;8.140;2023-05-16T11:47:10;1.27;;;0.87;;
73575;SDS011;61859;49.204;8.140;2023-05-16T11:49:36;1.03;;;0.60;;
73575;SDS011;61859;49.204;8.140;2023-05-16T11:52:03;2.80;;;0.90;;
73575;SDS011;61859;49.204;8.140;2023-05-16T11:54:30;4.80;;;0.97;;
73575;SDS011;61859;49.204;8.140;2023-05-16T11:56:56;5.47;;;1.30;;
73575;SDS011;61859;49.204;8.140;2023-05-16T11:59:23;0.97;;;0.93;;
73575;SDS011;61859;49.204;8.140;2023-05-16T12:01:50;1.93;;;1.30;;
73575;SDS011;61859;49.204;8.140;2023-05-16T12:04:16;1.73;;;1.10;;
73575;SDS011;61859;49.204;8.140;2023-05-16T12:06:42;8.30;;;0.93;;
73575;SDS011;61859;49.204;8.140;2023-05-16T12:09:12;4.20;;;1.43;;
73575;SDS011;61859;49.204;8.140;2023-05-16T12:11:40;2.07;;;1.30;;
73575;SDS011;61859;49.204;8.140;2023-05-16T12:14:08;3.47;;;1.27;;
73575;SDS011;61859;49.204;8.140;2023-05-16T12:16:36;1.80;;;1.40;;
73575;SDS011;61859;49.204;8.140;2023-05-16T12:19:03;1.97;;;1.20;;
73575;SDS011;61859;49.204;8.140;2023-05-16T12:21:30;5.43;;;1.20;;
73575;SDS011;61859;49.204;8.140;2023-05-16T12:23:56;4.30;;;1.30;;
73575;SDS011;61859;49.204;8.140;2023-05-16T12:26:24;3.47;;;1.30;;
73575;SDS011;61859;49.204;8.140;2023-05-16T12:28:54;2.37;;;1.40;;
73575;SDS011;61859;49.204;8.140;2023-05-16T12:31:22;4.47;;;1.33;;
73575;SDS011;61859;49.204;8.140;2023-05-16T12:33:51;1.80;;;1.00;;
73575;SDS011;61859;49.204;8.140;2023-05-16T12:36:18;4.13;;;1.30;;
73575;SDS011;61859;49.204;8.140;2023-05-16T12:38:47;3.13;;;1.47;;
73575;SDS011;61859;49.204;8.140;2023-05-16T12:41:19;6.77;;;1.37;;
73575;SDS011;61859;49.204;8.140;2023-05-16T12:43:48;5.37;;;1.40;;
73575;SDS011;61859;49.204;8.140;2023-05-16T12:46:14;3.95;;;1.38;;
73575;SDS011;61859;49.204;8.140;2023-05-16T12:48:40;4.20;;;2.00;;
73575;SDS011;61859;49.204;8.140;2023-05-16T12:51:14;4.97;;;2.53;;
73575;SDS011;61859;49.204;8.140;2023-05-16T12:53:41;3.83;;;1.60;;
73575;SDS011;61859;49.204;8.140;2023-05-16T12:56:08;8.97;;;1.17;;
73575;SDS011;61859;49.204;8.140;2023-05-16T12:58:35;4.30;;;1.17;;
73575;SDS011;61859;49.204;8.140;2023-05-16T13:01:01;2.77;;;1.07;;
73575;SDS011;61859;49.204;8.140;2023-05-16T13:03:27;3.07;;;1.20;;
73575;SDS011;61859;49.204;8.140;2023-05-16T13:05:54;5.90;;;1.37;;
73575;SDS011;61859;49.204;8.140;2023-05-16T13:08:20;6.03;;;1.17;;
73575;SDS011;61859;49.204;8.140;2023-05-16T13:10:46;2.97;;;1.10;;
73575;SDS011;61859;49.204;8.140;2023-05-16T13:13:11;2.47;;;1.20;;
73575;SDS011;61859;49.204;8.140;2023-05-16T13:15:38;4.13;;;1.20;;
73575;SDS011;61859;49.204;8.140;2023-05-16T13:18:04;3.00;;;1.10;;
73575;SDS011;61859;49.204;8.140;2023-05-16T13:20:30;2.07;;;1.00;;
73575;SDS011;61859;49.204;8.140;2023-05-16T13:22:56;2.67;;;0.97;;
73575;SDS011;61859;49.204;8.140;2023-05-16T13:25:22;1.17;;;1.07;;
73575;SDS011;61859;49.204;8.140;2023-05-16T13:27:47;3.73;;;1.17;;
73575;SDS011;61859;49.204;8.140;2023-05-16T13:30:13;1.73;;;0.90;;
73575;SDS011;61859;49.204;8.140;2023-05-16T13:32:39;1.70;;;0.83;;
73575;SDS011;61859;49.204;8.140;2023-05-16T13:35:05;2.90;;;0.97;;
73575;SDS011;61859;49.204;8.140;2023-05-16T13:37:31;3.17;;;1.10;;
73575;SDS011;61859;49.204;8.140;2023-05-16T13:39:57;4.87;;;1.33;;
73575;SDS011;61859;49.204;8.140;2023-05-16T13:42:23;2.77;;;1.00;;
73575;SDS011;61859;49.204;8.140;2023-05-16T13:44:48;4.27;;;1.10;;
73575;SDS011;61859;49.204;8.140;2023-05-16T13:47:14;2.33;;;0.93;;
73575;SDS011;61859;49.204;8.140;2023-05-16T13:49:40;4.43;;;1.23;;
73575;SDS011;61859;49.204;8.140;2023-05-16T13:52:06;4.73;;;1.07;;
73575;SDS011;61859;49.204;8.140;2023-05-16T13:54:32;2.83;;;0.90;;
73575;SDS011;61859;49.204;8.140;2023-05-16T13:56:58;4.03;;;1.33;;
73575;SDS011;61859;49.204;8.140;2023-05-16T13:59:23;2.27;;;1.13;;
73575;SDS011;61859;49.204;8.140;2023-05-16T14:01:49;2.43;;;1.20;;
73575;SDS011;61859;49.204;8.140;2023-05-16T14:04:15;3.37;;;0.80;;
73575;SDS011;61859;49.204;8.140;2023-05-16T14:06:41;3.47;;;1.20;;
73575;SDS011;61859;49.204;8.140;2023-05-16T14:09:06;1.60;;;0.83;;
73575;SDS011;61859;49.204;8.140;2023-05-16T14:11:32;5.90;;;1.63;;
73575;SDS011;61859;49.204;8.140;2023-05-16T14:13:58;2.40;;;1.10;;
73575;SDS011;61859;49.204;8.140;2023-05-16T14:16:24;2.37;;;1.00;;
73575;SDS011;61859;49.204;8.140;2023-05-16T14:18:49;4.80;;;1.87;;
73575;SDS011;61859;49.204;8.140;2023-05-16T14:21:15;3.10;;;1.07;;
73575;SDS011;61859;49.204;8.140;2023-05-16T14:23:41;3.83;;;1.17;;
73575;SDS011;61859;49.204;8.140;2023-05-16T14:26:08;2.90;;;0.93;;
73575;SDS011;61859;49.204;8.140;2023-05-16T14:28:33;2.05;;;1.08;;
73575;SDS011;61859;49.204;8.140;2023-05-16T14:30:59;5.50;;;1.15;;
73575;SDS011;61859;49.204;8.140;2023-05-16T14:33:25;5.13;;;1.05;;
73575;SDS011;61859;49.204;8.140;2023-05-16T14:35:51;1.67;;;1.00;;
73575;SDS011;61859;49.204;8.140;2023-05-16T14:38:17;2.85;;;1.23;;
73575;SDS011;61859;49.204;8.140;2023-05-16T14:40:43;2.97;;;1.00;;
73575;SDS011;61859;49.204;8.140;2023-05-16T14:43:09;1.35;;;0.68;;
73575;SDS011;61859;49.204;8.140;2023-05-16T14:45:36;2.42;;;1.00;;
73575;SDS011;61859;49.204;8.140;2023-05-16T14:48:02;3.47;;;1.10;;
73575;SDS011;61859;49.204;8.140;2023-05-16T14:50:28;3.70;;;0.98;;
73575;SDS011;61859;49.204;8.140;2023-05-16T14:52:53;1.98;;;0.95;;
73575;SDS011;61859;49.204;8.140;2023-05-16T14:55:19;4.40;;;1.15;;
73575;SDS011;61859;49.204;8.140;2023-05-16T14:57:45;4.22;;;1.00;;
73575;SDS011;61859;49.204;8.140;2023-05-16T15:00:13;4.10;;;1.23;;
73575;SDS011;61859;49.204;8.140;2023-05-16T15:02:41;3.00;;;0.93;;
73575;SDS011;61859;49.204;8.140;2023-05-16T15:05:06;3.30;;;0.80;;
73575;SDS011;61859;49.204;8.140;2023-05-16T15:07:33;1.67;;;0.90;;
73575;SDS011;61859;49.204;8.140;2023-05-16T15:09:58;3.93;;;1.70;;
73575;SDS011;61859;49.204;8.140;2023-05-16T15:12:24;3.23;;;0.93;;
73575;SDS011;61859;49.204;8.140;2023-05-16T15:14:50;2.93;;;1.00;;
73575;SDS011;61859;49.204;8.140;2023-05-16T15:17:15;2.63;;;0.80;;
73575;SDS011;61859;49.204;8.140;2023-05-16T15:19:41;4.53;;;0.80;;
73575;SDS011;61859;49.204;8.140;2023-05-16T15:22:06;2.25;;;1.00;;
73575;SDS011;61859;49.204;8.140;2023-05-16T15:24:34;2.97;;;0.60;;
73575;SDS011;61859;49.204;8.140;2023-05-16T15:27:00;3.38;;;0.60;;
73575;SDS011;61859;49.204;8.140;2023-05-16T15:29:28;1.13;;;0.60;;
73575;SDS011;61859;49.204;8.140;2023-05-16T15:31:53;1.67;;;0.85;;
73575;SDS011;61859;49.204;8.140;2023-05-16T15:34:19;5.05;;;1.20;;
73575;SDS011;61859;49.204;8.140;2023-05-16T15:36:46;4.45;;;0.80;;